Time;durP1;ratioP1;P1;durP2;ratioP2;P2;SDS_P1;SDS_P2;PMS_P1;PMS_P2;Temp;Humidity;BMP_temperature;BMP_pressure;BME280_temperature;BME280_humidity;BME280_pressure;Samples;Min_cycle;Max_cycle;Signal;HPM_P1;HPM_P2
2024/04/09 00:00:55;;;;;;;6.03;4.40;;;;;;;19.73;55.27;99945.19;5378944;26;20747;-62
2024/04/09 00:03:22;;;;;;;9.20;5.32;;;;;;;19.71;55.37;99943.59;5396875;26;20247;-62
2024/04/09 00:05:55;;;;;;;9.43;4.40;;;;;;;19.67;55.74;99948.13;5408948;26;20235;-63
2024/04/09 00:08:22;;;;;;;5.43;4.53;;;;;;;19.61;55.73;99958.84;5414795;26;20780;-62
2024/04/09 00:10:52;;;;;;;7.38;4.63;;;;;;;19.58;55.92;99959.00;5413788;26;20247;-63
2024/04/09 00:13:20;;;;;;;7.07;4.70;;;;;;;19.56;56.05;99960.88;5398848;26;20581;-62
2024/04/09 00:15:50;;;;;;;7.82;4.90;;;;;;;19.54;56.23;99958.31;5386480;26;20337;-63
2024/04/09 00:18:20;;;;;;;7.88;4.82;;;;;;;19.51;56.32;99948.03;5400999;26;20251;-64
2024/04/09 00:20:53;;;;;;;7.82;4.78;;;;;;;19.48;56.02;99950.78;5386097;26;20290;-61
2024/04/09 00:23:28;;;;;;;7.68;4.57;;;;;;;19.46;56.48;99949.16;5393910;26;20262;-62
2024/04/09 00:25:55;;;;;;;4.78;4.32;;;;;;;19.44;56.08;99951.00;5388037;26;20247;-63
2024/04/09 00:28:26;;;;;;;7.72;5.00;;;;;;;19.42;56.47;99952.88;5391183;26;20266;-62
2024/04/09 00:30:54;;;;;;;7.60;5.00;;;;;;;19.38;56.43;99948.72;5379963;26;20233;-63
2024/04/09 00:33:24;;;;;;;5.57;4.05;;;;;;;19.35;56.92;99946.25;5385103;26;20815;-62
2024/04/09 00:35:51;;;;;;;8.23;4.25;;;;;;;19.36;56.99;99947.94;5411813;26;20232;-63
2024/04/09 00:38:23;;;;;;;5.30;3.90;;;;;;;19.35;56.62;99949.69;5385696;26;20575;-63
2024/04/09 00:40:53;;;;;;;5.03;4.20;;;;;;;19.35;56.72;99946.25;5392928;26;20727;-63
2024/04/09 00:43:23;;;;;;;9.60;4.53;;;;;;;19.35;56.79;99951.47;5381333;26;20695;-61
2024/04/09 00:45:50;;;;;;;6.25;4.68;;;;;;;19.34;56.73;99945.41;5383651;26;20233;-63
2024/04/09 00:48:21;;;;;;;5.85;4.20;;;;;;;19.36;56.89;99947.94;5369777;26;20648;-63
2024/04/09 00:50:50;;;;;;;6.15;4.22;;;;;;;19.36;56.96;99953.16;5393220;26;20243;-63
2024/04/09 00:53:22;;;;;;;8.75;4.30;;;;;;;19.29;56.76;99936.94;5344076;26;21222;-64
2024/04/09 00:55:52;;;;;;;6.70;4.63;;;;;;;19.33;56.63;99942.84;5356978;26;20353;-64
2024/04/09 00:58:24;;;;;;;7.75;4.80;;;;;;;19.32;56.99;99942.00;5372333;26;20340;-63
2024/04/09 01:00:52;;;;;;;6.78;4.40;;;;;;;19.29;56.78;99943.03;5389184;26;20266;-61
2024/04/09 01:03:23;;;;;;;7.57;4.70;;;;;;;19.26;56.99;99943.16;5393756;26;20236;-63
2024/04/09 01:05:52;;;;;;;6.15;3.97;;;;;;;19.23;56.87;99943.31;5395985;26;20267;-63
2024/04/09 01:08:22;;;;;;;5.40;3.85;;;;;;;19.20;57.25;99935.63;5381243;26;20361;-63
2024/04/09 01:10:52;;;;;;;6.35;4.10;;;;;;;19.21;56.94;99933.84;5379916;26;20242;-63
2024/04/09 01:13:22;;;;;;;5.32;4.07;;;;;;;19.24;56.89;99938.94;5377511;26;20236;-63
2024/04/09 01:15:53;;;;;;;9.77;4.22;;;;;;;19.27;56.73;99938.78;5381214;26;20246;-58
2024/04/09 01:18:22;;;;;;;4.65;4.10;;;;;;;19.29;56.01;99937.81;5402363;26;20344;-58
2024/04/09 01:20:50;;;;;;;5.78;4.35;;;;;;;19.30;56.55;99939.47;5392089;26;20355;-59
2024/04/09 01:23:23;;;;;;;4.63;4.05;;;;;;;19.31;56.59;99938.56;5387450;26;20244;-59
2024/04/09 01:25:50;;;;;;;6.03;4.53;;;;;;;19.33;56.64;99940.22;5403383;26;20349;-59
2024/04/09 01:28:19;;;;;;;6.80;4.22;;;;;;;19.31;56.49;99940.31;5397739;26;20283;-61
2024/04/09 01:30:49;;;;;;;6.55;4.63;;;;;;;19.29;56.90;99937.81;5391749;26;20314;-58
2024/04/09 01:33:19;;;;;;;7.35;4.70;;;;;;;19.28;57.11;99932.63;5383487;26;20354;-59
2024/04/09 01:35:46;;;;;;;8.50;4.28;;;;;;;19.23;56.41;99935.47;5412337;26;20244;-58
2024/04/09 01:38:17;;;;;;;5.75;3.83;;;;;;;19.20;56.52;99942.63;5407214;26;20328;-62
2024/04/09 01:40:47;;;;;;;8.85;5.00;;;;;;;19.16;56.72;99930.63;5387825;26;20235;-60
2024/04/09 01:43:17;;;;;;;6.05;4.28;;;;;;;19.13;57.36;99936.84;5382491;26;20341;-60
2024/04/09 01:45:44;;;;;;;5.70;5.00;;;;;;;19.06;57.58;99938.06;5370389;26;20248;-61
2024/04/09 01:48:14;;;;;;;5.70;4.75;;;;;;;19.05;58.04;99938.97;5378071;26;20769;-59
2024/04/09 01:50:41;;;;;;;6.07;5.28;;;;;;;19.01;57.75;99940.06;5379733;26;20248;-60
2024/04/09 01:53:11;;;;;;;7.15;4.35;;;;;;;19.00;58.40;99935.72;5383375;26;20499;-59
2024/04/09 01:55:40;;;;;;;7.25;4.50;;;;;;;19.00;57.71;99946.19;5381567;26;20236;-62
2024/04/09 01:58:13;;;;;;;8.15;4.95;;;;;;;18.96;57.75;99944.63;5387161;26;21176;-61
2024/04/09 02:00:40;;;;;;;8.45;5.10;;;;;;;18.90;58.60;99939.72;5381937;26;20244;-59
2024/04/09 02:03:10;;;;;;;6.07;4.60;;;;;;;18.81;58.70;99947.09;5379980;26;20337;-59
2024/04/09 02:05:38;;;;;;;8.85;5.47;;;;;;;18.78;59.05;99949.84;5381505;26;20833;-60
2024/04/09 02:08:08;;;;;;;7.28;4.80;;;;;;;18.75;59.33;99949.97;5396604;26;20239;-60
2024/04/09 02:10:36;;;;;;;10.25;5.28;;;;;;;18.72;58.81;99952.72;5393466;26;20762;-58
2024/04/09 02:13:06;;;;;;;7.68;5.68;;;;;;;18.73;59.44;99951.78;5386785;26;20243;-58
2024/04/09 02:15:37;;;;;;;8.00;4.97;;;;;;;18.71;59.22;99952.81;5366440;26;20260;-59
2024/04/09 02:18:07;;;;;;;6.97;5.38;;;;;;;18.64;59.67;99948.75;5398553;26;20277;-59
2024/04/09 02:20:34;;;;;;;8.75;5.80;;;;;;;18.62;59.60;99951.41;5406566;26;20247;-59
2024/04/09 02:23:04;;;;;;;7.55;5.28;;;;;;;18.60;59.83;99955.88;5388439;26;20236;-60
2024/04/09 02:25:32;;;;;;;7.35;5.70;;;;;;;18.60;60.01;99948.03;5393595;26;20299;-62
2024/04/09 02:28:02;;;;;;;11.48;6.53;;;;;;;18.52;59.86;99944.91;5379936;26;20255;-62
2024/04/09 02:30:29;;;;;;;7.82;6.45;;;;;;;18.44;60.36;99947.03;5381283;26;20244;-62
2024/04/09 02:33:02;;;;;;;9.52;7.72;;;;;;;18.35;60.58;99949.16;5402238;26;20240;-62
2024/04/09 02:35:29;;;;;;;10.50;8.50;;;;;;;18.31;61.11;99951.97;5378997;26;20236;-62
2024/04/09 02:38:00;;;;;;;12.57;9.50;;;;;;;18.26;61.03;99954.78;5381201;26;20755;-63
2024/04/09 02:40:27;;;;;;;12.95;9.52;;;;;;;18.25;61.15;99952.25;5409521;26;20339;-60
2024/04/09 02:43:00;;;;;;;13.43;10.57;;;;;;;18.19;61.58;99963.81;5410408;26;20231;-60
2024/04/09 02:45:28;;;;;;;15.93;10.55;;;;;;;18.13;61.33;99964.06;5380787;26;20248;-65
2024/04/09 02:47:58;;;;;;;14.75;10.35;;;;;;;18.10;61.70;99966.81;5400371;26;20818;-61
2024/04/09 02:50:30;;;;;;;10.50;9.02;;;;;;;18.05;61.72;99958.34;5409906;26;20341;-62
2024/04/09 02:53:00;;;;;;;12.50;10.00;;;;;;;18.02;62.40;99961.09;5407424;26;20236;-59
2024/04/09 02:55:27;;;;;;;11.93;9.50;;;;;;;17.96;62.21;99962.19;5386536;26;20313;-62
2024/04/09 02:57:56;;;;;;;11.63;8.88;;;;;;;17.95;62.17;99963.09;5408881;26;20235;-63
2024/04/09 03:00:24;;;;;;;12.23;9.60;;;;;;;17.94;62.89;99968.41;5398234;26;20352;-61
2024/04/09 03:02:55;;;;;;;10.52;8.63;;;;;;;17.91;62.33;99958.94;5379903;26;20244;-61
2024/04/09 03:05:31;;;;;;;9.45;8.43;;;;;;;17.94;62.34;99968.41;5382665;26;20718;-61
2024/04/09 03:08:01;;;;;;;9.98;8.10;;;;;;;17.93;63.04;99971.91;5397577;26;20295;-62
2024/04/09 03:10:33;;;;;;;10.45;8.13;;;;;;;17.92;62.39;99970.22;5376945;26;20750;-61
2024/04/09 03:13:06;;;;;;;10.68;7.88;;;;;;;17.85;62.35;99970.47;5386364;26;20236;-60
2024/04/09 03:15:33;;;;;;;9.30;7.68;;;;;;;17.80;62.45;99977.63;5395507;26;20675;-62
2024/04/09 03:18:03;;;;;;;9.35;6.90;;;;;;;17.77;63.33;99969.94;5380719;26;20248;-61
2024/04/09 03:20:35;;;;;;;9.50;6.78;;;;;;;17.76;63.03;99973.47;5403797;26;20235;-61
2024/04/09 03:23:04;;;;;;;7.25;6.55;;;;;;;17.76;62.87;99975.25;5384026;26;20338;-61
2024/04/09 03:25:32;;;;;;;8.27;7.03;;;;;;;17.78;62.99;99983.81;5375154;26;20341;-61
2024/04/09 03:28:01;;;;;;;8.05;6.28;;;;;;;17.77;62.55;99988.19;5409965;26;20273;-62
2024/04/09 03:30:28;;;;;;;7.57;5.95;;;;;;;17.73;62.39;99981.38;5384472;26;20294;-61
2024/04/09 03:32:58;;;;;;;8.93;6.20;;;;;;;17.70;62.68;99981.50;5379801;26;20337;-62
2024/04/09 03:35:28;;;;;;;10.13;6.70;;;;;;;17.63;63.25;99975.69;5406766;26;20640;-60
2024/04/09 03:38:00;;;;;;;9.07;6.93;;;;;;;17.55;63.51;99971.72;5396310;26;20244;-61
2024/04/09 03:40:30;;;;;;;9.40;6.18;;;;;;;17.52;63.72;99977.06;5397497;26;20234;-60
2024/04/09 03:43:00;;;;;;;7.78;5.70;;;;;;;17.48;63.82;99980.69;5412519;26;20246;-59
2024/04/09 03:45:27;;;;;;;13.40;6.40;;;;;;;17.45;63.21;99976.47;5383834;26;20294;-59
2024/04/09 03:47:57;;;;;;;8.02;6.35;;;;;;;17.45;64.18;99975.63;5405123;26;20298;-59
2024/04/09 03:50:24;;;;;;;7.57;5.85;;;;;;;17.45;63.91;99975.63;5387626;26;20871;-58
2024/04/09 03:52:56;;;;;;;7.82;5.72;;;;;;;17.44;64.06;99968.72;5394382;26;20344;-59
2024/04/09 03:55:26;;;;;;;8.00;6.03;;;;;;;17.43;63.62;99973.09;5391190;26;20231;-58
2024/04/09 03:57:56;;;;;;;9.60;5.70;;;;;;;17.46;63.33;99972.13;5380397;26;20345;-60
2024/04/09 04:00:23;;;;;;;8.85;5.32;;;;;;;17.43;63.27;99969.63;5401950;26;20235;-59
2024/04/09 04:02:54;;;;;;;9.60;5.43;;;;;;;17.38;63.88;99965.47;5397715;26;20307;-59
2024/04/09 04:05:21;;;;;;;11.98;5.90;;;;;;;17.34;63.95;99963.91;5372706;26;20252;-59
2024/04/09 04:07:51;;;;;;;6.85;6.15;;;;;;;17.30;63.83;99959.69;5379928;26;20617;-59
2024/04/09 04:10:18;;;;;;;8.95;5.90;;;;;;;17.27;63.41;99962.44;5388230;26;20714;-59
2024/04/09 04:12:50;;;;;;;7.75;5.65;;;;;;;17.27;63.89;99972.88;5388666;26;20294;-59
2024/04/09 04:15:17;;;;;;;7.28;5.78;;;;;;;17.28;63.97;99977.16;5376142;26;20286;-61
2024/04/09 04:17:47;;;;;;;8.82;5.45;;;;;;;17.30;63.42;99977.09;5407298;26;20303;-59
2024/04/09 04:20:14;;;;;;;9.05;6.10;;;;;;;17.36;63.47;99971.63;5380116;26;20283;-59
2024/04/09 04:22:44;;;;;;;9.75;6.05;;;;;;;17.36;62.85;99967.28;5377316;26;20289;-59
2024/04/09 04:25:11;;;;;;;6.60;5.45;;;;;;;17.31;63.03;99969.22;5394423;26;20235;-59
2024/04/09 04:27:45;;;;;;;8.05;5.35;;;;;;;17.24;63.28;99962.56;5382318;26;20244;-60
2024/04/09 04:30:15;;;;;;;7.50;5.60;;;;;;;17.21;63.42;99967.91;5390109;26;20283;-59
2024/04/09 04:32:44;;;;;;;6.47;5.05;;;;;;;17.28;62.45;99974.56;5410888;26;20223;-59
2024/04/09 04:35:12;;;;;;;6.40;4.95;;;;;;;17.35;62.04;99969.94;5380502;26;20278;-59
2024/04/09 04:37:42;;;;;;;6.53;5.18;;;;;;;17.38;61.95;99969.84;5378728;26;20357;-60
2024/04/09 04:40:10;;;;;;;8.27;4.97;;;;;;;17.44;60.99;99973.94;5384788;26;20298;-60
2024/04/09 04:42:40;;;;;;;6.35;5.20;;;;;;;17.49;60.48;99974.56;5385345;26;20237;-59
2024/04/09 04:45:07;;;;;;;8.80;5.10;;;;;;;17.51;60.39;99975.38;5376175;26;20486;-60
2024/04/09 04:47:40;;;;;;;13.60;5.63;;;;;;;17.46;60.67;99970.34;5411837;26;20609;-59
2024/04/09 04:50:07;;;;;;;7.78;5.15;;;;;;;17.55;60.33;99982.16;5414258;26;20223;-59
2024/04/09 04:52:37;;;;;;;8.75;4.88;;;;;;;17.66;60.03;99977.34;5406956;26;20355;-59
2024/04/09 04:55:06;;;;;;;7.50;4.88;;;;;;;17.76;59.37;99981.28;5396844;26;20764;-61
2024/04/09 04:57:35;;;;;;;5.93;4.63;;;;;;;17.84;58.36;99978.34;5355232;26;20405;-59
2024/04/09 05:00:09;;;;;;;6.45;4.43;;;;;;;17.94;58.08;99984.03;5380702;26;20236;-60
2024/04/09 05:02:41;;;;;;;7.13;4.82;;;;;;;18.04;58.50;99980.09;5406259;26;20300;-59
2024/04/09 05:05:10;;;;;;;6.90;4.88;;;;;;;18.14;57.59;99984.00;5401122;26;20294;-59
2024/04/09 05:07:39;;;;;;;7.18;4.35;;;;;;;18.24;57.06;99984.47;5380080;26;20279;-59
2024/04/09 05:10:12;;;;;;;5.63;4.65;;;;;;;18.32;56.53;99975.38;5376370;26;20647;-60
2024/04/09 05:12:43;;;;;;;6.20;4.60;;;;;;;18.39;56.28;99985.53;5387817;26;20881;-59
2024/04/09 05:15:10;;;;;;;8.57;5.18;;;;;;;18.45;56.32;99975.69;5384774;26;20830;-60
2024/04/09 05:17:43;;;;;;;10.48;4.82;;;;;;;18.52;55.87;99976.22;5397417;26;20572;-59
2024/04/09 05:20:11;;;;;;;8.45;4.90;;;;;;;18.56;55.38;99983.03;5380349;26;20236;-60
2024/04/09 05:22:42;;;;;;;7.45;4.78;;;;;;;18.60;55.50;99974.13;5377984;26;20745;-61
2024/04/09 05:25:09;;;;;;;5.90;4.60;;;;;;;18.65;55.60;99966.94;5393616;26;20248;-60
2024/04/09 05:27:39;;;;;;;9.63;4.60;;;;;;;18.68;54.98;99976.41;5390530;26;20351;-60
2024/04/09 05:30:10;;;;;;;7.55;5.13;;;;;;;18.75;55.21;99977.84;5382474;26;20240;-59
2024/04/09 05:32:44;;;;;;;8.00;4.88;;;;;;;18.81;55.36;99981.03;5394872;26;20240;-62
2024/04/09 05:35:14;;;;;;;8.70;4.60;;;;;;;18.83;54.13;99978.31;5385967;26;20282;-58
2024/04/09 05:37:44;;;;;;;7.45;5.20;;;;;;;18.84;54.71;99980.00;5390166;26;20303;-57
2024/04/09 05:40:12;;;;;;;8.80;5.72;;;;;;;18.79;54.84;99988.06;5384860;26;20251;-60
2024/04/09 05:42:45;;;;;;;9.88;5.32;;;;;;;18.71;55.35;99979.75;5383698;26;20781;-59
2024/04/09 05:45:16;;;;;;;8.98;5.03;;;;;;;18.65;55.38;99982.59;5383134;26;20325;-58
2024/04/09 05:47:48;;;;;;;8.30;5.15;;;;;;;18.69;56.02;99975.47;5381936;26;20257;-60
2024/04/09 05:50:16;;;;;;;7.28;4.90;;;;;;;18.75;55.77;99983.06;5383792;26;20337;-57
2024/04/09 05:52:46;;;;;;;6.88;4.38;;;;;;;18.86;55.15;99985.19;5383759;26;20614;-60
2024/04/09 05:55:13;;;;;;;12.52;5.57;;;;;;;18.93;54.85;99986.59;5378959;26;20399;-60
2024/04/09 05:57:43;;;;;;;7.22;4.63;;;;;;;19.01;53.81;99994.91;5383808;26;20345;-59
2024/04/09 06:00:13;;;;;;;11.20;4.63;;;;;;;19.15;53.51;99979.41;5380121;26;20563;-59
2024/04/09 06:02:48;;;;;;;6.07;3.72;;;;;;;19.34;52.58;99981.97;5376344;26;20761;-60
2024/04/09 06:05:16;;;;;;;7.97;4.20;;;;;;;19.52;51.80;99980.25;5377813;26;20256;-59
2024/04/09 06:07:48;;;;;;;11.98;4.57;;;;;;;19.70;51.37;99989.81;5389672;26;20236;-58
2024/04/09 06:10:17;;;;;;;8.35;4.57;;;;;;;19.79;50.72;99981.50;5396425;26;20283;-58
2024/04/09 06:12:45;;;;;;;7.18;4.18;;;;;;;19.91;50.36;99980.00;5385705;26;20286;-59
2024/04/09 06:15:15;;;;;;;8.15;4.10;;;;;;;20.00;49.97;99986.56;5385185;26;20282;-58
2024/04/09 06:17:47;;;;;;;13.82;5.05;;;;;;;20.10;49.85;99982.53;5384017;26;20684;-59
2024/04/09 06:20:17;;;;;;;9.77;4.80;;;;;;;20.15;49.71;99983.16;5375607;26;20735;-60
2024/04/09 06:22:44;;;;;;;8.30;4.78;;;;;;;20.18;49.51;99976.91;5403472;26;20239;-58
2024/04/09 06:25:14;;;;;;;9.57;5.10;;;;;;;20.20;49.44;99977.66;5374647;26;20266;-59
2024/04/09 06:27:41;;;;;;;9.70;4.57;;;;;;;20.22;49.64;99987.13;5381145;26;20244;-58
2024/04/09 06:30:12;;;;;;;8.85;4.78;;;;;;;20.22;50.19;99986.28;5378520;26;20244;-58
2024/04/09 06:32:40;;;;;;;6.45;4.55;;;;;;;20.34;49.88;99985.63;5373203;26;20286;-59
2024/04/09 06:35:12;;;;;;;6.70;4.35;;;;;;;20.46;48.79;99979.75;5378185;26;20248;-59
2024/04/09 06:37:39;;;;;;;9.40;4.80;;;;;;;20.61;48.35;99982.50;5376795;26;20295;-58
2024/04/09 06:40:10;;;;;;;6.65;3.95;;;;;;;20.75;47.99;99986.06;5381008;26;20231;-60
2024/04/09 06:42:37;;;;;;;4.63;4.07;;;;;;;21.01;47.48;99980.31;5377709;26;20376;-58
2024/04/09 06:45:08;;;;;;;6.95;4.35;;;;;;;21.23;46.87;99986.88;5378472;26;20236;-62
2024/04/09 06:47:36;;;;;;;7.53;4.10;;;;;;;21.52;46.01;99984.41;5345706;26;20296;-59
2024/04/09 06:50:07;;;;;;;11.85;4.30;;;;;;;21.81;45.28;99987.94;5349460;26;20237;-58
2024/04/09 06:52:37;;;;;;;7.13;4.10;;;;;;;22.05;44.63;99983.00;5387746;26;20748;-57
2024/04/09 06:55:07;;;;;;;7.20;3.80;;;;;;;22.25;43.41;99986.25;5413794;26;20235;-59
2024/04/09 06:57:34;;;;;;;7.07;3.83;;;;;;;22.37;42.86;99983.72;5390975;26;20282;-57
2024/04/09 07:00:06;;;;;;;7.53;3.78;;;;;;;22.48;42.87;99975.19;5383505;26;20244;-60
2024/04/09 07:02:34;;;;;;;10.90;3.80;;;;;;;22.74;41.94;99980.59;5380049;26;20723;-57
2024/04/09 07:05:05;;;;;;;5.82;3.85;;;;;;;22.95;40.64;99981.06;5399301;26;20283;-64
2024/04/09 07:07:34;;;;;;;8.82;3.45;;;;;;;23.11;40.69;99981.75;5395020;26;20887;-62
2024/04/09 07:10:07;;;;;;;10.93;3.83;;;;;;;23.38;40.53;99984.34;5378975;26;20266;-59
2024/04/09 07:12:34;;;;;;;5.78;3.72;;;;;;;23.55;39.63;99981.44;5375896;26;20293;-59
2024/04/09 07:15:04;;;;;;;6.38;3.53;;;;;;;23.81;39.64;99981.53;5380350;26;21137;-62
2024/04/09 07:17:32;;;;;;;4.53;3.42;;;;;;;24.15;38.82;99974.78;5385221;26;20243;-63
2024/04/09 07:20:03;;;;;;;6.45;3.25;;;;;;;24.44;37.78;99978.06;5384521;26;20240;-60
2024/04/09 07:22:31;;;;;;;5.72;3.42;;;;;;;24.68;37.78;99967.59;5379135;26;20264;-62
2024/04/09 07:25:00;;;;;;;4.75;3.17;;;;;;;24.97;37.13;99970.78;5382550;26;20248;-62
2024/04/09 07:27:30;;;;;;;7.88;2.88;;;;;;;25.28;36.46;99966.75;5384181;26;20670;-61
2024/04/09 07:30:00;;;;;;;7.25;2.88;;;;;;;25.58;35.79;99967.22;5390345;26;20755;-60
2024/04/09 07:32:27;;;;;;;6.07;3.15;;;;;;;25.87;35.36;99965.88;5396153;26;20596;-62
2024/04/09 07:34:57;;;;;;;5.55;3.22;;;;;;;25.99;34.82;99967.56;5384109;26;20290;-59
2024/04/09 07:37:24;;;;;;;6.28;3.22;;;;;;;26.09;35.20;99964.22;5379854;26;20244;-62
2024/04/09 07:39:55;;;;;;;7.03;3.10;;;;;;;26.24;34.20;99965.66;5384491;26;20278;-60
2024/04/09 07:42:22;;;;;;;5.20;3.00;;;;;;;26.41;33.33;99961.72;5395762;26;20278;-58
2024/04/09 07:44:54;;;;;;;4.85;3.00;;;;;;;26.68;32.97;99966.63;5373762;26;20787;-62
2024/04/09 07:47:21;;;;;;;10.32;3.22;;;;;;;26.94;32.90;99960.06;5377799;26;21085;-60
2024/04/09 07:49:53;;;;;;;4.55;2.97;;;;;;;27.10;32.65;99961.47;5345499;26;20276;-62
2024/04/09 07:52:20;;;;;;;8.18;2.95;;;;;;;27.24;31.81;99955.91;5374434;26;20236;-61
2024/04/09 07:54:51;;;;;;;7.85;3.17;;;;;;;27.35;31.55;99961.16;5385092;26;20749;-59
2024/04/09 07:57:18;;;;;;;4.88;3.05;;;;;;;27.46;31.38;99954.97;5397340;26;20236;-60
2024/04/09 07:59:48;;;;;;;7.60;2.72;;;;;;;27.67;31.51;99955.00;5378537;26;20240;-60
2024/04/09 08:02:18;;;;;;;6.05;2.50;;;;;;;27.91;30.38;99960.91;5377707;26;20317;-65
2024/04/09 08:04:48;;;;;;;7.70;3.35;;;;;;;28.10;30.05;99956.66;5379355;26;20244;-65
2024/04/09 08:07:15;;;;;;;6.25;2.67;;;;;;;28.23;29.90;99959.91;5377544;26;20350;-64
2024/04/09 08:09:45;;;;;;;5.35;2.45;;;;;;;28.18;29.69;99964.78;5375771;26;20326;-65
2024/04/09 08:12:13;;;;;;;6.20;2.78;;;;;;;28.19;29.38;99958.50;5385661;26;20613;-64
2024/04/09 08:14:43;;;;;;;4.57;2.60;;;;;;;28.22;29.46;99960.91;5385105;26;20227;-61
2024/04/09 08:17:11;;;;;;;5.03;2.50;;;;;;;28.19;29.34;99961.16;5367863;26;20340;-60
2024/04/09 08:19:44;;;;;;;6.78;2.47;;;;;;;28.14;29.11;99961.56;5412657;26;20242;-62
2024/04/09 08:22:11;;;;;;;7.72;2.90;;;;;;;28.24;29.14;99961.59;5402499;26;20340;-63
2024/04/09 08:24:41;;;;;;;5.75;2.65;;;;;;;28.47;29.22;99951.69;5387583;26;20828;-61
2024/04/09 08:27:08;;;;;;;3.42;2.67;;;;;;;28.52;28.54;99945.97;5389526;26;20468;-63
2024/04/09 08:29:38;;;;;;;5.03;2.40;;;;;;;28.46;28.52;99949.97;5410696;26;20239;-61
2024/04/09 08:32:06;;;;;;;6.55;2.75;;;;;;;28.58;28.52;99946.25;5407093;26;20417;-63
2024/04/09 08:34:36;;;;;;;3.97;2.50;;;;;;;28.72;28.00;99945.06;5368164;26;20228;-62
2024/04/09 08:37:06;;;;;;;6.07;2.42;;;;;;;28.88;27.85;99948.00;5408865;26;20247;-62
2024/04/09 08:39:36;;;;;;;7.38;2.45;;;;;;;28.99;27.85;99946.22;5380416;26;20294;-60
2024/04/09 08:42:04;;;;;;;4.03;2.58;;;;;;;28.97;28.04;99948.97;5381779;26;20248;-61
2024/04/09 08:44:36;;;;;;;2.85;1.85;;;;;;;28.86;28.49;99941.97;5378501;26;20232;-62
2024/04/09 08:47:08;;;;;;;5.10;2.60;;;;;;;28.65;28.49;99941.25;5386439;26;20294;-63
2024/04/09 08:49:39;;;;;;;9.32;2.30;;;;;;;28.49;28.46;99939.09;5377470;26;20562;-62
2024/04/09 08:52:11;;;;;;;4.65;2.33;;;;;;;28.47;28.65;99940.25;5384992;26;20235;-62
2024/04/09 08:54:43;;;;;;;4.75;2.33;;;;;;;28.28;28.11;99943.59;5391609;26;20227;-65
2024/04/09 08:57:10;;;;;;;5.93;2.50;;;;;;;28.16;28.48;99942.88;5374974;26;20735;-62
2024/04/09 08:59:40;;;;;;;4.10;2.22;;;;;;;28.05;29.28;99935.00;5379579;26;20232;-61
2024/04/09 09:02:11;;;;;;;3.55;1.92;;;;;;;28.04;29.00;99936.00;5399129;26;20781;-62
2024/04/09 09:04:40;;;;;;;8.23;1.80;;;;;;;27.92;28.44;99935.25;5379942;26;20283;-63
2024/04/09 09:07:15;;;;;;;3.05;2.17;;;;;;;27.83;28.54;99941.31;5393470;26;20610;-63
2024/04/09 09:09:46;;;;;;;5.07;2.17;;;;;;;27.76;28.13;99935.69;5414701;26;20282;-62
2024/04/09 09:12:14;;;;;;;4.63;1.90;;;;;;;27.79;27.79;99939.91;5383849;26;20290;-62
2024/04/09 09:14:52;;;;;;;6.35;1.85;;;;;;;27.80;27.71;99931.84;5390968;26;20291;-62
2024/04/09 09:17:19;;;;;;;3.80;2.00;;;;;;;27.82;28.02;99945.78;5378486;26;20352;-64
2024/04/09 09:19:59;;;;;;;5.03;1.83;;;;;;;27.82;27.35;99935.19;5378935;26;20260;-62
2024/04/09 09:22:38;;;;;;;3.08;2.20;;;;;;;27.80;28.39;99941.56;5380707;26;20286;-64
2024/04/09 09:25:13;;;;;;;4.63;1.98;;;;;;;27.80;29.48;99930.97;5377460;26;20280;-62
2024/04/09 09:27:43;;;;;;;7.53;2.25;;;;;;;27.81;28.42;99930.88;5380845;26;20289;-63
2024/04/09 09:30:11;;;;;;;4.82;1.67;;;;;;;27.85;28.58;99929.63;5392740;26;20780;-61
2024/04/09 09:32:47;;;;;;;2.15;1.50;;;;;;;27.87;28.47;99934.78;5395315;26;20300;-61
2024/04/09 09:35:17;;;;;;;2.03;1.60;;;;;;;28.01;27.79;99928.31;5360463;26;20271;-61
2024/04/09 09:37:52;;;;;;;2.35;1.60;;;;;;;28.10;27.42;99922.22;5232760;27;20264;-63
2024/04/09 09:40:21;;;;;;;3.13;2.03;;;;;;;28.18;27.04;99927.69;5243091;27;20347;-61
2024/04/09 09:42:53;;;;;;;2.58;1.80;;;;;;;28.34;27.30;99919.22;5239657;27;20672;-62
2024/04/09 09:45:23;;;;;;;3.60;1.67;;;;;;;28.45;27.44;99926.28;5243697;27;20308;-62
2024/04/09 09:47:55;;;;;;;2.40;1.92;;;;;;;28.50;28.00;99919.59;5242774;27;20714;-61
2024/04/09 09:50:25;;;;;;;2.63;1.67;;;;;;;28.57;26.89;99919.88;5239527;27;20286;-62
2024/04/09 09:52:58;;;;;;;5.35;1.73;;;;;;;28.63;26.66;99919.34;5232915;27;20265;-61
2024/04/09 09:55:27;;;;;;;2.33;1.70;;;;;;;28.71;26.95;99910.69;5231701;27;20288;-62
2024/04/09 09:58:00;;;;;;;2.17;1.50;;;;;;;28.80;26.83;99916.03;5238168;27;20346;-61
2024/04/09 10:00:27;;;;;;;3.40;1.65;;;;;;;28.89;26.49;99912.53;5241807;27;20279;-62
2024/04/09 10:02:58;;;;;;;5.38;2.00;;;;;;;29.02;26.60;99907.00;5242063;27;20292;-62
2024/04/09 10:05:31;;;;;;;3.28;1.60;;;;;;;29.13;24.86;99906.03;5236941;27;20238;-61
2024/04/09 10:08:06;;;;;;;6.25;1.70;;;;;;;29.18;25.48;99903.78;5236386;27;20344;-60
2024/04/09 10:10:35;;;;;;;4.18;1.40;;;;;;;29.24;25.68;99900.56;5241173;27;20385;-65
2024/04/09 10:13:10;;;;;;;8.10;1.73;;;;;;;29.25;25.88;99898.75;5224921;27;20606;-61
2024/04/09 10:15:47;;;;;;;6.90;1.60;;;;;;;29.33;25.07;99894.38;5236567;27;20280;-63
2024/04/09 10:18:27;;;;;;;7.28;1.67;;;;;;;29.32;24.41;99891.88;5242982;27;20236;-62
2024/04/09 10:20:58;;;;;;;3.28;1.85;;;;;;;29.30;25.01;99894.66;5220156;27;20260;-64
2024/04/09 10:23:28;;;;;;;2.22;1.50;;;;;;;29.31;24.29;99887.53;5240440;27;20759;-64
2024/04/09 10:25:58;;;;;;;4.00;1.55;;;;;;;29.39;24.48;99884.19;5242806;27;20671;-62
2024/04/09 10:28:30;;;;;;;4.15;1.67;;;;;;;29.57;24.51;99877.19;5236243;27;20248;-63
2024/04/09 10:31:08;;;;;;;3.08;1.30;;;;;;;29.73;24.79;99877.44;5239481;27;20806;-62
2024/04/09 10:33:38;;;;;;;4.50;1.80;;;;;;;29.95;25.54;99880.69;5243485;27;20256;-62
2024/04/09 10:36:11;;;;;;;5.00;1.30;;;;;;;30.25;24.62;99874.28;5231667;27;20261;-63
2024/04/09 10:38:42;;;;;;;2.13;1.20;;;;;;;30.30;23.60;99870.22;5219394;27;20233;-64
2024/04/09 10:41:14;;;;;;;3.90;1.70;;;;;;;30.30;24.00;99870.22;5233391;27;20422;-65
2024/04/09 10:43:42;;;;;;;2.47;1.63;;;;;;;30.23;23.12;99868.28;5237910;27;20790;-66
2024/04/09 10:46:14;;;;;;;4.10;1.70;;;;;;;30.11;23.86;99864.94;5241233;27;20555;-63
2024/04/09 10:48:43;;;;;;;4.30;1.40;;;;;;;30.01;23.84;99857.03;5241790;27;20806;-63
2024/04/09 10:51:14;;;;;;;4.28;1.70;;;;;;;30.18;24.27;99860.75;5229052;27;20850;-65
2024/04/09 10:53:47;;;;;;;2.92;1.30;;;;;;;30.35;23.77;99860.94;5239062;27;20701;-64
2024/04/09 10:56:17;;;;;;;3.58;1.40;;;;;;;30.36;23.85;99857.28;5240678;27;20499;-64
2024/04/09 10:58:45;;;;;;;3.00;1.42;;;;;;;30.35;23.83;99856.47;5232112;27;21692;-64
2024/04/09 11:01:15;;;;;;;2.78;1.60;;;;;;;30.44;23.65;99852.88;5240836;27;20824;-63
2024/04/09 11:03:44;;;;;;;2.20;1.50;;;;;;;30.61;24.06;99851.25;5242479;27;20240;-66
2024/04/09 11:06:15;;;;;;;3.53;1.50;;;;;;;30.77;23.58;99842.59;5227217;27;20350;-63
2024/04/09 11:08:47;;;;;;;2.92;1.25;;;;;;;30.82;24.11;99842.13;5242830;27;20236;-64
2024/04/09 11:11:19;;;;;;;1.65;1.55;;;;;;;30.72;24.25;99843.03;5241192;27;20664;-63
2024/04/09 11:13:47;;;;;;;3.40;1.42;;;;;;;30.59;24.06;99837.25;5222933;27;20240;-64
2024/04/09 11:16:20;;;;;;;1.75;1.60;;;;;;;30.30;23.86;99838.31;5235061;27;20344;-64
2024/04/09 11:18:56;;;;;;;5.68;1.67;;;;;;;30.11;24.83;99838.38;5236206;27;20724;-64
2024/04/09 11:21:27;;;;;;;7.20;1.50;;;;;;;30.01;24.91;99832.28;5236597;27;20264;-65
2024/04/09 11:23:57;;;;;;;5.85;1.85;;;;;;;29.89;24.73;99830.81;5221822;27;20346;-64
2024/04/09 11:26:28;;;;;;;2.55;1.70;;;;;;;29.76;25.33;99829.34;5239064;27;20295;-64
2024/04/09 11:28:55;;;;;;;3.05;1.60;;;;;;;29.73;25.73;99826.97;5229485;27;20355;-62
2024/04/09 11:31:25;;;;;;;1.95;1.63;;;;;;;29.76;25.87;99824.03;5228703;27;20253;-64
2024/04/09 11:33:52;;;;;;;3.08;1.58;;;;;;;29.73;25.90;99820.81;5238635;27;20236;-65
2024/04/09 11:36:22;;;;;;;2.83;1.50;;;;;;;29.76;26.30;99810.75;5241898;27;20328;-64
2024/04/09 11:39:00;;;;;;;2.08;1.50;;;;;;;29.77;26.91;99809.75;5242679;27;20228;-64
2024/04/09 11:41:31;;;;;;;5.28;1.95;;;;;;;29.82;27.04;99807.47;5242732;27;20228;-63
2024/04/09 11:43:58;;;;;;;3.78;1.80;;;;;;;29.80;27.09;99814.78;5242450;27;20225;-65